首页
METAR-TAF:

METAR-TAF

机场 :

雅蒲島國際機場

雅蒲島, 密克罗尼西亚群岛

纬度: 09-29N, 经度: 138-05E, 海拔: 28米

当前天气观测

该预报发布于59分钟前的23:53 UTC
风速9节,风向东转东北
温度 30°C
湿度 79%
气压 1012 hPa
能見度: 19.3公里
少量云层高于1600英尺
多云层高于13000英尺
阴天层高于30000英尺

METAR: PTYA 102353Z 07009KT 12SM FEW016 BKN130 OVC300 30/26 A2988 RMK SLP118 60013 8/171 T02970263 10297 20260 52015

时间: 10:52 (00:52 UTC)

预报

该预报发布于1小时和27分钟前的23:25 UTC
预报有效从11日的 00点(UTC)到 11日的 24点(UTC)
风速11节,风向东转东北
能見度: 10公里
散云层高于1600英尺
散云层高于13000英尺
附近有阵雨

TAF: PTYA 102325Z 1100/1124 07011KT P6SM VCSH SCT016 SCT130

超过4000个机场的气象观测和天气预报(METAR&TAF报告)。

可查询的气象台以黄色和红色小点在地图上表示。

将鼠标移到小点上方,可查看气象台名称。

然后点击查看天气观测和预报。

如需切换地图:点击带黑十字的绿色按钮放大地图;点击带横线的绿色按钮缩小地图;或者点击绿色箭头查看邻近地区的地图。


METAR-TAF: